Time;durP1;ratioP1;P1;durP2;ratioP2;P2;SDS_P1;SDS_P2;PMS_P1;PMS_P2;Temp;Humidity;BMP_temperature;BMP_pressure;BME280_temperature;BME280_humidity;BME280_pressure;Samples;Min_cycle;Max_cycle;Signal;HPM_P1;HPM_P2
2023/07/17 00:00:03;;;;;;;18.67;2.50;;;;;;;;;;4990613;28;20058;-74
2023/07/17 00:02:29;;;;;;;10.65;2.78;;;;;;;;;;4973212;28;20035;-74
2023/07/17 00:04:55;;;;;;;17.60;2.72;;;;;;;;;;4975240;28;20029;-74
2023/07/17 00:07:21;;;;;;;11.07;2.38;;;;;;;;;;4990940;28;20041;-74
2023/07/17 00:09:47;;;;;;;9.27;2.35;;;;;;;;;;4992036;28;20596;-74
2023/07/17 00:12:14;;;;;;;11.35;1.80;;;;;;;;;;4994383;28;20768;-74
2023/07/17 00:14:40;;;;;;;12.48;2.30;;;;;;;;;;5000469;28;20062;-74
2023/07/17 00:17:06;;;;;;;15.18;2.78;;;;;;;;;;4980510;28;20080;-74
2023/07/17 00:19:32;;;;;;;9.82;2.13;;;;;;;;;;4988307;28;20364;-73
2023/07/17 00:21:58;;;;;;;11.48;2.30;;;;;;;;;;4989143;28;20081;-73
2023/07/17 00:24:24;;;;;;;10.27;2.70;;;;;;;;;;4973035;28;20042;-73
2023/07/17 00:26:50;;;;;;;10.88;2.30;;;;;;;;;;4987215;28;20404;-74
2023/07/17 00:29:21;;;;;;;9.98;2.70;;;;;;;;;;4988566;28;20050;-74
2023/07/17 00:31:47;;;;;;;7.28;2.15;;;;;;;;;;4990468;28;20041;-73
2023/07/17 00:34:13;;;;;;;6.72;2.42;;;;;;;;;;4990391;28;20034;-73
2023/07/17 00:36:39;;;;;;;9.75;2.40;;;;;;;;;;4989593;28;20027;-74
2023/07/17 00:39:05;;;;;;;11.50;2.55;;;;;;;;;;4988136;28;20272;-74
2023/07/17 00:41:31;;;;;;;9.45;2.28;;;;;;;;;;4990638;28;20073;-74
2023/07/17 00:43:57;;;;;;;13.32;2.60;;;;;;;;;;4990354;28;20027;-74
2023/07/17 00:46:24;;;;;;;8.27;2.70;;;;;;;;;;4988990;28;20192;-74
2023/07/17 00:48:50;;;;;;;6.07;1.85;;;;;;;;;;4985640;28;20034;-73
2023/07/17 00:51:16;;;;;;;9.48;2.30;;;;;;;;;;4990356;28;20117;-74
2023/07/17 00:53:43;;;;;;;9.32;2.83;;;;;;;;;;4989737;28;20066;-73
2023/07/17 00:56:09;;;;;;;7.60;2.38;;;;;;;;;;4989810;28;20030;-75
2023/07/17 00:58:35;;;;;;;8.55;2.72;;;;;;;;;;4983665;28;20392;-73
2023/07/17 01:01:03;;;;;;;10.32;3.05;;;;;;;;;;4989525;28;20827;-73
2023/07/17 01:03:29;;;;;;;5.50;1.90;;;;;;;;;;4988959;28;20074;-73
2023/07/17 01:05:57;;;;;;;7.40;2.40;;;;;;;;;;4989608;28;20041;-73
2023/07/17 01:08:23;;;;;;;9.70;2.92;;;;;;;;;;4988887;28;20045;-74
2023/07/17 01:10:50;;;;;;;6.68;2.17;;;;;;;;;;4991100;28;20096;-74
2023/07/17 01:13:16;;;;;;;11.80;2.58;;;;;;;;;;4978760;28;20157;-74
2023/07/17 01:15:42;;;;;;;10.52;2.40;;;;;;;;;;4972691;28;20030;-73
2023/07/17 01:18:09;;;;;;;7.45;2.53;;;;;;;;;;4982009;28;20035;-73
2023/07/17 01:20:35;;;;;;;5.72;1.80;;;;;;;;;;4987860;28;20096;-73
2023/07/17 01:23:05;;;;;;;7.13;1.73;;;;;;;;;;4989903;28;20475;-73
2023/07/17 01:25:32;;;;;;;6.32;1.92;;;;;;;;;;4989616;28;20030;-73
2023/07/17 01:27:58;;;;;;;6.75;2.13;;;;;;;;;;4988542;28;20685;-73
2023/07/17 01:30:24;;;;;;;10.10;2.55;;;;;;;;;;4988253;28;20050;-73
2023/07/17 01:32:50;;;;;;;11.15;2.25;;;;;;;;;;4989363;28;20031;-73
2023/07/17 01:35:16;;;;;;;10.73;2.78;;;;;;;;;;4988262;28;20555;-74
2023/07/17 01:37:42;;;;;;;9.15;2.20;;;;;;;;;;4988218;28;20042;-74
2023/07/17 01:40:10;;;;;;;12.85;2.17;;;;;;;;;;4985560;28;20038;-75
2023/07/17 01:42:36;;;;;;;12.82;2.47;;;;;;;;;;4990914;28;20031;-73
2023/07/17 01:45:03;;;;;;;9.63;2.47;;;;;;;;;;4988719;28;20034;-73
2023/07/17 01:47:29;;;;;;;11.45;2.25;;;;;;;;;;4988578;28;20108;-73
2023/07/17 01:49:55;;;;;;;14.85;3.13;;;;;;;;;;4988642;28;20436;-72
2023/07/17 01:52:21;;;;;;;13.23;3.25;;;;;;;;;;4989334;28;20035;-73
2023/07/17 01:54:47;;;;;;;12.23;2.70;;;;;;;;;;4985935;28;20038;-74
2023/07/17 01:57:14;;;;;;;8.57;1.80;;;;;;;;;;4988124;28;20046;-73
2023/07/17 01:59:40;;;;;;;13.20;3.58;;;;;;;;;;4986242;28;20038;-73
2023/07/17 02:02:06;;;;;;;9.20;2.92;;;;;;;;;;4988027;28;20037;-73
2023/07/17 02:04:32;;;;;;;9.73;2.42;;;;;;;;;;4989753;28;20125;-74
2023/07/17 02:06:58;;;;;;;8.95;3.20;;;;;;;;;;4994913;28;20114;-74
2023/07/17 02:09:24;;;;;;;8.85;2.40;;;;;;;;;;4985094;28;20034;-73
2023/07/17 02:11:50;;;;;;;10.30;2.33;;;;;;;;;;4995066;28;20034;-74
2023/07/17 02:14:16;;;;;;;9.60;2.42;;;;;;;;;;5014288;28;20026;-74
2023/07/17 02:16:42;;;;;;;9.68;3.08;;;;;;;;;;4998432;28;20038;-73
2023/07/17 02:19:09;;;;;;;9.00;2.08;;;;;;;;;;4991920;28;20174;-73
2023/07/17 02:21:35;;;;;;;9.82;2.40;;;;;;;;;;4991625;28;20039;-73
2023/07/17 02:24:01;;;;;;;11.68;3.35;;;;;;;;;;4992535;28;20042;-73
2023/07/17 02:26:27;;;;;;;12.00;2.58;;;;;;;;;;4990162;28;20042;-72
2023/07/17 02:28:54;;;;;;;10.82;2.50;;;;;;;;;;4990991;28;20034;-72
2023/07/17 02:31:21;;;;;;;15.23;2.70;;;;;;;;;;4988862;28;20050;-73
2023/07/17 02:33:47;;;;;;;8.18;2.72;;;;;;;;;;4989806;28;20058;-73
2023/07/17 02:36:13;;;;;;;5.32;2.35;;;;;;;;;;4989364;28;20496;-72
2023/07/17 02:38:39;;;;;;;11.95;3.13;;;;;;;;;;4992258;28;20041;-73
2023/07/17 02:41:05;;;;;;;12.07;3.90;;;;;;;;;;4990804;28;20403;-74
2023/07/17 02:43:31;;;;;;;7.40;2.30;;;;;;;;;;4991122;28;20029;-74
2023/07/17 02:45:57;;;;;;;28.38;13.90;;;;;;;;;;4988444;28;20154;-74
2023/07/17 02:48:23;;;;;;;13.32;4.93;;;;;;;;;;4990739;28;20546;-74
2023/07/17 02:50:52;;;;;;;14.43;2.80;;;;;;;;;;4974456;28;20082;-75
2023/07/17 02:53:18;;;;;;;11.68;3.00;;;;;;;;;;4992425;28;20105;-74
2023/07/17 02:55:44;;;;;;;11.10;3.03;;;;;;;;;;4985514;28;20065;-75
2023/07/17 02:58:10;;;;;;;6.68;2.70;;;;;;;;;;4989980;28;20082;-75
2023/07/17 03:00:36;;;;;;;12.02;2.47;;;;;;;;;;4990598;28;20053;-76
2023/07/17 03:03:07;;;;;;;12.30;2.75;;;;;;;;;;4990571;28;20114;-76
2023/07/17 03:05:35;;;;;;;10.75;2.33;;;;;;;;;;4990415;28;20502;-76
2023/07/17 03:08:01;;;;;;;12.98;3.88;;;;;;;;;;4990050;28;20387;-76
2023/07/17 03:10:27;;;;;;;13.13;2.80;;;;;;;;;;4993190;28;20042;-76
2023/07/17 03:12:53;;;;;;;17.52;2.80;;;;;;;;;;4989760;28;20050;-74
2023/07/17 03:15:19;;;;;;;12.40;3.92;;;;;;;;;;4980237;28;20034;-75
2023/07/17 03:17:45;;;;;;;22.10;8.73;;;;;;;;;;4981088;28;20031;-75
2023/07/17 03:20:13;;;;;;;13.25;3.45;;;;;;;;;;4984951;28;20115;-75
2023/07/17 03:22:39;;;;;;;17.10;3.55;;;;;;;;;;4987521;28;20030;-74
2023/07/17 03:25:06;;;;;;;11.95;2.58;;;;;;;;;;4983733;28;20373;-75
2023/07/17 03:27:32;;;;;;;12.52;2.80;;;;;;;;;;4988825;28;20060;-74
2023/07/17 03:29:58;;;;;;;11.23;3.22;;;;;;;;;;4989086;28;20070;-77
2023/07/17 03:32:24;;;;;;;9.65;2.85;;;;;;;;;;4982947;28;20507;-74
2023/07/17 03:34:50;;;;;;;12.63;2.92;;;;;;;;;;4977707;28;20425;-75
2023/07/17 03:37:16;;;;;;;14.15;3.45;;;;;;;;;;4985640;28;20504;-75
2023/07/17 03:39:42;;;;;;;15.25;3.58;;;;;;;;;;4984214;28;20046;-75
2023/07/17 03:42:11;;;;;;;15.23;3.70;;;;;;;;;;4987788;28;20515;-76
2023/07/17 03:44:40;;;;;;;16.42;3.13;;;;;;;;;;4984011;28;20037;-75
2023/07/17 03:47:06;;;;;;;13.13;4.47;;;;;;;;;;4983779;28;20097;-76
2023/07/17 03:49:33;;;;;;;12.15;2.83;;;;;;;;;;4982997;28;20034;-75
2023/07/17 03:51:59;;;;;;;15.48;2.83;;;;;;;;;;4986379;28;20042;-75
2023/07/17 03:54:25;;;;;;;9.95;3.20;;;;;;;;;;4983692;28;20026;-75
2023/07/17 03:56:51;;;;;;;13.93;3.38;;;;;;;;;;4983079;28;20034;-76
2023/07/17 03:59:24;;;;;;;18.70;3.88;;;;;;;;;;4983985;28;20031;-77
2023/07/17 04:01:50;;;;;;;11.77;4.00;;;;;;;;;;4982208;28;20023;-76
2023/07/17 04:04:17;;;;;;;18.17;3.47;;;;;;;;;;4987826;28;20369;-77
2023/07/17 04:06:43;;;;;;;9.88;3.53;;;;;;;;;;4986242;28;20286;-73
2023/07/17 04:09:09;;;;;;;26.90;12.30;;;;;;;;;;4991360;28;20034;-74
2023/07/17 04:11:35;;;;;;;12.52;3.45;;;;;;;;;;4990766;28;20329;-74
2023/07/17 04:14:01;;;;;;;11.85;3.20;;;;;;;;;;4986959;28;20064;-72
2023/07/17 04:16:27;;;;;;;16.83;3.78;;;;;;;;;;4981821;28;20130;-73
2023/07/17 04:18:54;;;;;;;10.93;3.53;;;;;;;;;;4990799;28;20484;-73
2023/07/17 04:21:20;;;;;;;13.00;2.97;;;;;;;;;;4988445;28;20030;-73
2023/07/17 04:23:50;;;;;;;9.93;2.80;;;;;;;;;;4985926;28;20554;-74
2023/07/17 04:26:17;;;;;;;16.73;2.85;;;;;;;;;;4985887;28;20502;-73
2023/07/17 04:28:43;;;;;;;12.55;3.08;;;;;;;;;;4985689;28;20496;-72
2023/07/17 04:31:09;;;;;;;11.85;3.25;;;;;;;;;;4972303;28;20484;-74
2023/07/17 04:33:35;;;;;;;13.30;3.00;;;;;;;;;;4984555;28;20251;-74
2023/07/17 04:36:01;;;;;;;10.90;3.25;;;;;;;;;;4988871;28;20144;-73
2023/07/17 04:38:27;;;;;;;12.95;3.38;;;;;;;;;;4987148;28;20045;-73
2023/07/17 04:40:53;;;;;;;14.57;3.50;;;;;;;;;;4990540;28;20096;-73
2023/07/17 04:43:19;;;;;;;18.70;3.80;;;;;;;;;;4989563;28;20034;-74
2023/07/17 04:45:45;;;;;;;19.55;2.95;;;;;;;;;;4983689;28;20027;-74
2023/07/17 04:48:11;;;;;;;18.55;4.55;;;;;;;;;;4983700;28;20045;-74
2023/07/17 04:50:37;;;;;;;13.90;3.25;;;;;;;;;;4988046;28;20472;-74
2023/07/17 04:53:03;;;;;;;19.95;3.92;;;;;;;;;;4985795;28;20101;-73
2023/07/17 04:55:29;;;;;;;16.88;3.97;;;;;;;;;;4987728;28;20395;-74
2023/07/17 04:57:55;;;;;;;15.65;3.28;;;;;;;;;;4990910;28;20034;-74
2023/07/17 05:00:21;;;;;;;15.60;3.45;;;;;;;;;;4987293;28;20058;-73
2023/07/17 05:02:47;;;;;;;18.33;3.97;;;;;;;;;;4978143;28;20042;-75
2023/07/17 05:05:13;;;;;;;15.00;3.70;;;;;;;;;;4988566;28;20026;-74
2023/07/17 05:07:42;;;;;;;13.90;3.42;;;;;;;;;;4989674;28;20041;-75
2023/07/17 05:10:10;;;;;;;11.00;3.40;;;;;;;;;;4989579;28;20069;-74
2023/07/17 05:12:37;;;;;;;15.43;4.57;;;;;;;;;;4989013;28;20058;-74
2023/07/17 05:15:03;;;;;;;12.30;3.65;;;;;;;;;;4997391;28;20139;-74
2023/07/17 05:17:29;;;;;;;14.38;3.85;;;;;;;;;;4977588;28;20035;-75
2023/07/17 05:19:55;;;;;;;14.90;4.15;;;;;;;;;;4983496;28;20030;-74
2023/07/17 05:22:21;;;;;;;16.15;3.67;;;;;;;;;;4989294;28;20035;-74
2023/07/17 05:24:47;;;;;;;19.88;4.45;;;;;;;;;;4991147;28;20383;-74
2023/07/17 05:27:13;;;;;;;20.58;4.20;;;;;;;;;;4991041;28;20035;-74
2023/07/17 05:29:39;;;;;;;16.58;4.18;;;;;;;;;;4990222;28;20452;-73
2023/07/17 05:32:06;;;;;;;13.70;3.63;;;;;;;;;;4986352;28;20070;-74
2023/07/17 05:34:32;;;;;;;18.25;5.03;;;;;;;;;;4990297;28;20042;-74
2023/07/17 05:36:58;;;;;;;14.77;3.53;;;;;;;;;;4987167;28;20053;-74
2023/07/17 05:39:24;;;;;;;16.25;5.07;;;;;;;;;;4989372;28;20491;-74
2023/07/17 05:41:50;;;;;;;10.48;4.25;;;;;;;;;;4984229;28;20133;-74
2023/07/17 05:44:16;;;;;;;17.65;4.25;;;;;;;;;;4991373;28;20038;-74
2023/07/17 05:46:42;;;;;;;14.77;4.60;;;;;;;;;;4991336;28;20034;-74
2023/07/17 05:49:08;;;;;;;11.80;3.75;;;;;;;;;;4994281;28;20069;-74
2023/07/17 05:51:34;;;;;;;13.90;3.72;;;;;;;;;;4991966;28;20480;-74
2023/07/17 05:54:00;;;;;;;13.43;4.07;;;;;;;;;;4990706;28;20101;-75
2023/07/17 05:56:26;;;;;;;16.73;4.95;;;;;;;;;;4992899;28;20030;-75
2023/07/17 05:58:52;;;;;;;15.18;4.35;;;;;;;;;;4983815;28;20035;-73
2023/07/17 06:01:19;;;;;;;14.98;4.43;;;;;;;;;;4971676;28;20161;-73
2023/07/17 06:03:45;;;;;;;17.95;4.78;;;;;;;;;;4992389;28;20034;-73
2023/07/17 06:06:11;;;;;;;21.73;5.57;;;;;;;;;;4988742;28;20043;-75
2023/07/17 06:08:37;;;;;;;14.25;4.35;;;;;;;;;;4991567;28;20057;-73
2023/07/17 06:11:03;;;;;;;15.40;5.07;;;;;;;;;;4993839;28;20038;-73
2023/07/17 06:13:29;;;;;;;23.75;5.88;;;;;;;;;;4991264;28;20069;-74
2023/07/17 06:15:55;;;;;;;17.13;5.05;;;;;;;;;;4992460;28;20460;-75
2023/07/17 06:18:21;;;;;;;15.80;4.32;;;;;;;;;;4992723;28;20118;-74
2023/07/17 06:20:47;;;;;;;15.43;4.80;;;;;;;;;;4986546;28;20054;-74
2023/07/17 06:23:13;;;;;;;21.33;5.90;;;;;;;;;;4980191;28;20053;-73
2023/07/17 06:25:39;;;;;;;19.40;6.63;;;;;;;;;;4986549;28;20038;-73
2023/07/17 06:28:05;;;;;;;16.95;5.43;;;;;;;;;;4990369;28;20054;-73
2023/07/17 06:30:32;;;;;;;22.38;6.05;;;;;;;;;;4990561;28;20041;-73
2023/07/17 06:32:58;;;;;;;16.90;4.80;;;;;;;;;;4990735;28;20034;-73
2023/07/17 06:35:24;;;;;;;18.60;5.40;;;;;;;;;;4992099;28;20516;-73
2023/07/17 06:37:50;;;;;;;18.70;5.95;;;;;;;;;;4991687;28;20046;-74
2023/07/17 06:40:16;;;;;;;22.30;5.90;;;;;;;;;;4990861;28;20031;-74
2023/07/17 06:42:42;;;;;;;26.88;5.88;;;;;;;;;;4992518;28;20038;-74
2023/07/17 06:45:08;;;;;;;19.63;6.13;;;;;;;;;;4985476;28;20041;-76
2023/07/17 06:47:34;;;;;;;36.67;6.18;;;;;;;;;;4984400;28;20022;-74
2023/07/17 06:50:00;;;;;;;15.70;4.47;;;;;;;;;;4985201;28;20125;-75
2023/07/17 06:52:26;;;;;;;15.75;4.80;;;;;;;;;;4981368;28;20477;-77
2023/07/17 06:54:52;;;;;;;15.07;5.00;;;;;;;;;;4978023;28;20041;-78
2023/07/17 06:57:18;;;;;;;11.63;4.88;;;;;;;;;;4978911;28;20038;-77
2023/07/17 06:59:44;;;;;;;13.50;5.78;;;;;;;;;;4984111;28;20455;-73
2023/07/17 07:02:10;;;;;;;41.38;6.05;;;;;;;;;;4984627;28;20026;-77
2023/07/17 07:04:36;;;;;;;21.70;6.40;;;;;;;;;;4983204;28;20041;-77
2023/07/17 07:07:02;;;;;;;23.67;6.53;;;;;;;;;;4983549;28;20042;-76
2023/07/17 07:09:28;;;;;;;15.85;5.60;;;;;;;;;;4990537;28;20038;-75
2023/07/17 07:11:54;;;;;;;19.15;5.85;;;;;;;;;;4990245;28;20038;-74
2023/07/17 07:14:21;;;;;;;17.48;5.22;;;;;;;;;;4990547;28;20038;-77
2023/07/17 07:16:47;;;;;;;12.40;4.75;;;;;;;;;;4989954;28;20084;-75
2023/07/17 07:19:13;;;;;;;11.85;4.63;;;;;;;;;;4992997;28;20169;-75
2023/07/17 07:21:40;;;;;;;14.73;5.05;;;;;;;;;;4992517;28;20113;-75
2023/07/17 07:24:06;;;;;;;11.57;4.30;;;;;;;;;;4993079;28;20046;-74
2023/07/17 07:26:33;;;;;;;18.83;6.05;;;;;;;;;;5000002;28;20102;-74
2023/07/17 07:28:59;;;;;;;15.18;5.25;;;;;;;;;;4988449;28;20153;-76
2023/07/17 07:31:25;;;;;;;14.30;4.80;;;;;;;;;;4988491;28;20089;-76
2023/07/17 07:33:51;;;;;;;14.35;4.55;;;;;;;;;;4990442;28;20420;-76
2023/07/17 07:36:17;;;;;;;11.80;4.07;;;;;;;;;;4989452;28;20041;-77
2023/07/17 07:38:43;;;;;;;13.55;3.95;;;;;;;;;;4982216;28;20039;-76
2023/07/17 07:41:09;;;;;;;11.38;4.35;;;;;;;;;;4984169;28;20408;-76
2023/07/17 07:43:35;;;;;;;13.82;5.10;;;;;;;;;;4980794;28;20039;-75
2023/07/17 07:46:01;;;;;;;13.25;4.55;;;;;;;;;;4987316;28;20106;-77
2023/07/17 07:48:29;;;;;;;12.02;3.97;;;;;;;;;;4989015;28;20118;-77
2023/07/17 07:50:55;;;;;;;11.77;3.78;;;;;;;;;;4983562;28;20034;-80
2023/07/17 07:53:21;;;;;;;11.68;3.25;;;;;;;;;;4982338;28;20108;-77
2023/07/17 07:55:47;;;;;;;12.18;3.80;;;;;;;;;;4977140;28;20485;-74
2023/07/17 07:58:13;;;;;;;11.20;3.20;;;;;;;;;;4988010;28;20046;-75
2023/07/17 08:00:39;;;;;;;12.60;3.90;;;;;;;;;;4989512;28;20109;-76
2023/07/17 08:03:05;;;;;;;10.18;3.55;;;;;;;;;;4981090;28;20452;-74
2023/07/17 08:05:31;;;;;;;8.57;3.35;;;;;;;;;;4980931;28;20065;-74
2023/07/17 08:07:57;;;;;;;11.05;3.85;;;;;;;;;;4988997;28;20435;-75
2023/07/17 08:10:23;;;;;;;11.98;3.00;;;;;;;;;;4988456;28;20050;-76
2023/07/17 08:12:49;;;;;;;8.05;3.35;;;;;;;;;;4982592;28;20045;-73
2023/07/17 08:15:15;;;;;;;12.00;5.28;;;;;;;;;;4984193;28;20042;-73
2023/07/17 08:17:42;;;;;;;10.82;3.60;;;;;;;;;;4977758;28;20038;-74
2023/07/17 08:20:08;;;;;;;8.57;2.65;;;;;;;;;;4981775;28;20428;-75
2023/07/17 08:22:34;;;;;;;9.55;2.55;;;;;;;;;;5001552;28;20108;-74
2023/07/17 08:25:00;;;;;;;9.02;2.20;;;;;;;;;;4989025;28;20038;-74
2023/07/17 08:27:26;;;;;;;5.57;2.25;;;;;;;;;;4982749;28;20046;-74
2023/07/17 08:29:52;;;;;;;8.48;2.60;;;;;;;;;;4982915;28;20034;-74
2023/07/17 08:32:18;;;;;;;10.55;2.30;;;;;;;;;;4966069;28;20109;-76
2023/07/17 08:34:44;;;;;;;6.53;1.88;;;;;;;;;;4985994;28;20034;-74
2023/07/17 08:37:10;;;;;;;8.65;2.90;;;;;;;;;;4984786;28;20032;-74
2023/07/17 08:39:36;;;;;;;10.52;2.38;;;;;;;;;;4984505;28;20234;-74
2023/07/17 08:42:02;;;;;;;7.38;3.05;;;;;;;;;;4983973;28;20058;-75
2023/07/17 08:44:30;;;;;;;10.35;2.63;;;;;;;;;;4982839;28;20049;-76
2023/07/17 08:46:56;;;;;;;8.02;2.60;;;;;;;;;;4984780;28;20145;-74
2023/07/17 08:49:23;;;;;;;9.38;2.78;;;;;;;;;;4985717;28;20331;-73
2023/07/17 08:51:50;;;;;;;6.88;2.55;;;;;;;;;;4984281;28;20069;-73
2023/07/17 08:54:16;;;;;;;5.53;2.03;;;;;;;;;;4983758;28;20530;-75
2023/07/17 08:56:42;;;;;;;6.68;2.13;;;;;;;;;;4984939;28;20030;-75
2023/07/17 08:59:08;;;;;;;6.72;1.88;;;;;;;;;;4984737;28;20394;-74
2023/07/17 09:01:34;;;;;;;11.30;2.30;;;;;;;;;;4979001;28;20022;-74
2023/07/17 09:04:00;;;;;;;4.63;1.85;;;;;;;;;;4984885;28;20061;-75
2023/07/17 09:06:27;;;;;;;11.45;2.20;;;;;;;;;;4985059;28;20030;-76
2023/07/17 09:08:53;;;;;;;5.90;2.45;;;;;;;;;;4985743;28;20583;-76
2023/07/17 09:11:20;;;;;;;8.88;2.25;;;;;;;;;;4982570;28;20125;-75
2023/07/17 09:13:46;;;;;;;6.75;1.95;;;;;;;;;;4985417;28;20056;-74
2023/07/17 09:16:16;;;;;;;5.72;1.88;;;;;;;;;;4982552;28;20042;-75
2023/07/17 09:18:42;;;;;;;6.20;1.85;;;;;;;;;;4981383;28;20022;-75
2023/07/17 09:21:08;;;;;;;9.43;2.55;;;;;;;;;;4982455;28;20053;-75
2023/07/17 09:23:38;;;;;;;7.43;2.13;;;;;;;;;;4985100;28;20038;-75
2023/07/17 09:26:04;;;;;;;6.43;1.70;;;;;;;;;;4978899;28;20169;-74
2023/07/17 09:28:30;;;;;;;5.45;1.80;;;;;;;;;;4982121;28;20121;-75
2023/07/17 09:31:00;;;;;;;4.88;1.52;;;;;;;;;;4983291;28;20098;-75
2023/07/17 09:33:26;;;;;;;8.55;1.90;;;;;;;;;;4984876;28;20027;-74
2023/07/17 09:35:56;;;;;;;6.03;1.85;;;;;;;;;;4982831;28;20495;-74
2023/07/17 09:38:23;;;;;;;4.55;1.70;;;;;;;;;;4983929;28;20031;-74
2023/07/17 09:40:49;;;;;;;5.47;1.80;;;;;;;;;;4979348;28;20054;-78
2023/07/17 09:43:15;;;;;;;6.00;2.88;;;;;;;;;;4989435;28;20038;-92
2023/07/17 09:45:42;;;;;;;11.70;2.75;;;;;;;;;;4985880;28;20022;-84
2023/07/17 09:48:08;;;;;;;7.93;2.17;;;;;;;;;;4986631;28;20081;-82
2023/07/17 09:50:34;;;;;;;6.63;1.80;;;;;;;;;;4988063;28;20043;-72
2023/07/17 09:53:01;;;;;;;5.45;1.83;;;;;;;;;;4980235;28;20141;-73
2023/07/17 09:55:31;;;;;;;7.63;2.17;;;;;;;;;;4981707;28;20030;-73
2023/07/17 09:57:59;;;;;;;9.77;2.38;;;;;;;;;;4982237;28;20041;-75
2023/07/17 10:00:25;;;;;;;5.88;1.95;;;;;;;;;;4980035;28;20031;-72
2023/07/17 10:03:05;;;;;;;6.97;2.20;;;;;;;;;;4978716;28;20042;-72
2023/07/17 10:05:33;;;;;;;6.55;1.75;;;;;;;;;;4973473;28;20043;-73
2023/07/17 10:07:59;;;;;;;5.13;1.98;;;;;;;;;;4976603;28;20113;-75
2023/07/17 10:10:26;;;;;;;9.35;2.33;;;;;;;;;;4979018;28;20030;-73
2023/07/17 10:12:52;;;;;;;5.38;2.00;;;;;;;;;;4982463;28;20499;-73
2023/07/17 10:15:19;;;;;;;5.35;1.83;;;;;;;;;;4974556;28;20125;-75
2023/07/17 10:17:55;;;;;;;8.07;2.10;;;;;;;;;;4977160;28;20022;-72
2023/07/17 10:20:21;;;;;;;10.73;2.38;;;;;;;;;;4972775;28;20078;-75
2023/07/17 10:22:47;;;;;;;3.88;2.20;;;;;;;;;;4979208;28;20069;-73
2023/07/17 10:25:19;;;;;;;4.43;1.90;;;;;;;;;;4979240;28;20035;-74
2023/07/17 10:27:45;;;;;;;;;;;;;;;;;;4981905;28;20057;-72
2023/07/17 10:30:23;;;;;;;4.22;1.80;;;;;;;;;;4987527;28;20363;-73
2023/07/17 10:32:51;;;;;;;5.85;1.92;;;;;;;;;;4993883;28;20495;-72
2023/07/17 10:35:20;;;;;;;6.47;2.33;;;;;;;;;;4982813;28;20118;-73
2023/07/17 10:37:46;;;;;;;5.82;1.92;;;;;;;;;;4985383;28;20399;-73
2023/07/17 10:40:28;;;;;;;7.05;2.45;;;;;;;;;;4985766;28;20042;-72
2023/07/17 10:42:55;;;;;;;7.18;2.47;;;;;;;;;;4985855;28;20074;-73
2023/07/17 10:45:21;;;;;;;6.40;2.00;;;;;;;;;;4977893;28;20061;-74
2023/07/17 10:47:50;;;;;;;3.15;1.60;;;;;;;;;;4979182;28;20045;-71
2023/07/17 10:50:19;;;;;;;7.53;2.75;;;;;;;;;;4986765;28;20064;-73
2023/07/17 10:52:45;;;;;;;9.93;6.03;;;;;;;;;;4981937;28;20118;-74
2023/07/17 10:55:11;;;;;;;24.55;14.05;;;;;;;;;;4986586;28;20126;-73
2023/07/17 10:57:38;;;;;;;5.93;2.40;;;;;;;;;;4986413;28;20034;-76
2023/07/17 11:00:04;;;;;;;11.77;2.47;;;;;;;;;;4986809;28;20038;-75
2023/07/17 11:02:31;;;;;;;7.32;2.22;;;;;;;;;;4980627;28;20109;-73
2023/07/17 11:05:01;;;;;;;5.70;1.70;;;;;;;;;;4987747;28;20034;-74
2023/07/17 11:07:29;;;;;;;7.93;2.03;;;;;;;;;;4982787;28;20484;-78
2023/07/17 11:09:55;;;;;;;4.38;1.77;;;;;;;;;;4991796;28;20018;-74
2023/07/17 11:12:25;;;;;;;7.10;2.42;;;;;;;;;;4993089;28;20042;-74
2023/07/17 11:14:54;;;;;;;6.57;1.90;;;;;;;;;;4993269;28;20033;-73
2023/07/17 11:17:20;;;;;;;8.20;1.75;;;;;;;;;;4991328;28;20038;-75
2023/07/17 11:19:46;;;;;;;5.50;1.40;;;;;;;;;;4992829;28;20026;-74
2023/07/17 11:22:15;;;;;;;7.82;2.20;;;;;;;;;;4991195;28;20030;-74
2023/07/17 11:24:41;;;;;;;6.97;1.92;;;;;;;;;;4993497;28;20030;-74
2023/07/17 11:27:08;;;;;;;10.10;1.70;;;;;;;;;;4976400;28;20042;-76
2023/07/17 11:29:40;;;;;;;5.65;1.83;;;;;;;;;;4994479;28;20357;-73
2023/07/17 11:32:06;;;;;;;3.85;1.40;;;;;;;;;;4977761;28;20038;-74
2023/07/17 11:34:35;;;;;;;4.43;1.42;;;;;;;;;;4992196;28;20480;-74
2023/07/17 11:37:03;;;;;;;4.00;1.73;;;;;;;;;;4992936;28;20093;-74
2023/07/17 11:39:32;;;;;;;5.05;1.73;;;;;;;;;;4990216;28;20435;-73
2023/07/17 11:41:58;;;;;;;7.45;1.70;;;;;;;;;;4992923;28;20086;-75
2023/07/17 11:44:24;;;;;;;5.13;1.60;;;;;;;;;;4988143;28;20047;-74
2023/07/17 11:46:54;;;;;;;5.30;2.03;;;;;;;;;;4990701;28;20023;-74
2023/07/17 11:49:20;;;;;;;7.55;2.10;;;;;;;;;;4974335;28;20070;-76
2023/07/17 11:51:46;;;;;;;5.15;2.13;;;;;;;;;;4992981;28;20439;-73
2023/07/17 11:54:12;;;;;;;6.85;1.88;;;;;;;;;;4991073;28;20030;-77
2023/07/17 11:56:41;;;;;;;7.10;2.05;;;;;;;;;;4973754;28;20039;-73
2023/07/17 11:59:15;;;;;;;4.95;1.88;;;;;;;;;;4974158;28;20384;-74
2023/07/17 12:01:41;;;;;;;2.88;1.35;;;;;;;;;;4999000;28;20117;-72
2023/07/17 12:04:20;;;;;;;4.38;1.52;;;;;;;;;;4990872;28;20508;-74
2023/07/17 12:06:46;;;;;;;4.15;1.40;;;;;;;;;;4978834;28;20026;-73
2023/07/17 12:09:12;;;;;;;5.20;1.77;;;;;;;;;;4977444;28;20420;-72
2023/07/17 12:11:38;;;;;;;6.13;1.40;;;;;;;;;;4981452;28;20057;-75
2023/07/17 12:14:04;;;;;;;3.22;1.52;;;;;;;;;;4998583;28;20113;-73
2023/07/17 12:16:31;;;;;;;5.13;1.45;;;;;;;;;;4987092;28;20027;-73
2023/07/17 12:18:57;;;;;;;8.93;1.75;;;;;;;;;;4989485;28;20066;-73
2023/07/17 12:21:23;;;;;;;6.38;1.88;;;;;;;;;;4991760;28;20362;-72
2023/07/17 12:23:49;;;;;;;5.63;2.20;;;;;;;;;;4991395;28;20506;-73
2023/07/17 12:26:15;;;;;;;6.32;1.80;;;;;;;;;;4989387;28;20061;-73
2023/07/17 12:28:41;;;;;;;6.45;1.60;;;;;;;;;;4990869;28;20073;-74
2023/07/17 12:31:08;;;;;;;7.50;1.83;;;;;;;;;;4978950;28;20054;-74
2023/07/17 12:33:34;;;;;;;5.43;1.63;;;;;;;;;;4975717;28;20439;-72
2023/07/17 12:36:00;;;;;;;4.68;1.75;;;;;;;;;;4988490;28;20022;-72
2023/07/17 12:38:26;;;;;;;5.10;1.88;;;;;;;;;;4991828;28;20081;-72
2023/07/17 12:40:53;;;;;;;6.28;1.48;;;;;;;;;;4989239;28;20050;-73
2023/07/17 12:43:18;;;;;;;4.85;1.60;;;;;;;;;;4986152;28;20053;-76
2023/07/17 12:45:44;;;;;;;6.47;1.55;;;;;;;;;;4980339;28;20030;-74
2023/07/17 12:48:11;;;;;;;3.30;1.23;;;;;;;;;;4980472;28;20066;-74
2023/07/17 12:50:37;;;;;;;4.10;1.50;;;;;;;;;;4981521;28;20057;-77
2023/07/17 12:53:04;;;;;;;7.13;4.18;;;;;;;;;;4980035;28;20038;-75
2023/07/17 12:55:30;;;;;;;7.25;3.53;;;;;;;;;;4984964;28;20026;-76
2023/07/17 12:57:56;;;;;;;4.93;1.80;;;;;;;;;;4987180;28;20468;-75
2023/07/17 13:00:22;;;;;;;3.80;1.23;;;;;;;;;;4987142;28;20057;-76
2023/07/17 13:02:48;;;;;;;3.85;1.23;;;;;;;;;;4989611;28;20121;-78
2023/07/17 13:05:14;;;;;;;3.67;1.25;;;;;;;;;;4979819;28;20556;-74
2023/07/17 13:07:40;;;;;;;4.55;1.70;;;;;;;;;;4980778;28;20034;-75
2023/07/17 13:10:07;;;;;;;4.25;1.50;;;;;;;;;;4987477;28;20044;-75
2023/07/17 13:12:36;;;;;;;4.85;1.70;;;;;;;;;;4984223;28;20118;-75
2023/07/17 13:15:03;;;;;;;5.30;1.55;;;;;;;;;;4983786;28;20096;-79
2023/07/17 13:17:29;;;;;;;8.52;4.68;;;;;;;;;;4981374;28;20168;-76
2023/07/17 13:19:55;;;;;;;4.82;1.92;;;;;;;;;;4982893;28;20046;-76
2023/07/17 13:22:21;;;;;;;4.88;1.63;;;;;;;;;;4984576;28;20107;-76
2023/07/17 13:24:47;;;;;;;6.38;1.80;;;;;;;;;;4981713;28;20051;-74
2023/07/17 13:27:13;;;;;;;7.68;1.52;;;;;;;;;;4979275;28;20034;-76
2023/07/17 13:29:40;;;;;;;3.28;1.63;;;;;;;;;;4979856;28;20046;-75
2023/07/17 15:13:47;;;;;;;21.95;16.15;;;;;;;;;;5010535;23;20096;-73
2023/07/17 15:16:13;;;;;;;8.43;3.75;;;;;;;;;;4983306;28;20065;-74
2023/07/17 15:18:39;;;;;;;10.40;2.65;;;;;;;;;;4984746;28;20062;-75
2023/07/17 15:21:05;;;;;;;9.52;2.15;;;;;;;;;;4982490;28;20080;-74
2023/07/17 15:23:31;;;;;;;5.90;2.30;;;;;;;;;;4980919;28;20031;-75
2023/07/17 15:25:57;;;;;;;5.65;2.60;;;;;;;;;;4984775;28;20043;-75
2023/07/17 15:28:23;;;;;;;6.38;2.47;;;;;;;;;;4982996;28;20380;-75
2023/07/17 15:30:49;;;;;;;5.40;2.65;;;;;;;;;;4981866;28;20062;-75
2023/07/17 15:33:15;;;;;;;8.25;2.75;;;;;;;;;;4982503;28;20031;-75
2023/07/17 15:35:41;;;;;;;10.82;2.85;;;;;;;;;;4972945;28;20026;-75
2023/07/17 15:38:07;;;;;;;7.13;2.88;;;;;;;;;;4980952;28;20393;-74
2023/07/17 15:40:33;;;;;;;16.15;3.20;;;;;;;;;;4978635;28;20073;-75
2023/07/17 15:42:59;;;;;;;10.27;3.22;;;;;;;;;;4979145;28;20089;-74
2023/07/17 15:45:28;;;;;;;15.57;6.55;;;;;;;;;;4989268;28;20034;-75
2023/07/17 15:47:54;;;;;;;3.88;2.13;;;;;;;;;;4983203;28;20042;-76
2023/07/17 15:50:20;;;;;;;11.32;2.78;;;;;;;;;;4984259;28;20459;-77
2023/07/17 15:52:46;;;;;;;6.55;2.80;;;;;;;;;;4981964;28;20031;-77
2023/07/17 15:55:12;;;;;;;7.35;2.75;;;;;;;;;;4979851;28;20042;-77
2023/07/17 15:57:38;;;;;;;4.95;2.33;;;;;;;;;;4985561;28;20077;-78
2023/07/17 16:00:06;;;;;;;7.38;2.80;;;;;;;;;;4977086;28;20134;-77
2023/07/17 16:02:32;;;;;;;9.18;3.33;;;;;;;;;;4976306;28;20042;-78
2023/07/17 16:04:58;;;;;;;10.48;2.67;;;;;;;;;;4979396;28;20046;-77
2023/07/17 16:07:24;;;;;;;6.50;2.20;;;;;;;;;;4974978;28;20039;-77
2023/07/17 16:09:50;;;;;;;9.05;3.03;;;;;;;;;;4983076;28;20118;-77
2023/07/17 16:12:16;;;;;;;5.72;1.88;;;;;;;;;;4962357;28;1124843;-77